createdAt,value
2023-03-17T00:01:04.174Z,8.69
2023-03-17T00:03:41.871Z,8.64
2023-03-17T00:06:23.276Z,8.86
2023-03-17T00:08:55.763Z,8.27
2023-03-17T00:11:28.297Z,8.53
2023-03-17T00:14:00.111Z,8.05
2023-03-17T00:16:39.722Z,8.05
2023-03-17T00:19:26.291Z,8.39
2023-03-17T00:21:59.002Z,8.15
2023-03-17T00:24:30.626Z,8.13
2023-03-17T00:27:02.238Z,8.03
2023-03-17T00:29:33.860Z,8.10
2023-03-17T00:32:16.023Z,7.73
2023-03-17T00:34:47.752Z,7.94
2023-03-17T00:37:20.870Z,8.28
2023-03-17T00:39:54.506Z,8.38
2023-03-17T00:42:26.111Z,8.44
2023-03-17T00:44:57.706Z,8.26
2023-03-17T00:47:29.399Z,7.98
2023-03-17T00:50:01.150Z,7.60
2023-03-17T00:52:33.067Z,7.65
2023-03-17T00:55:07.181Z,8.22
2023-03-17T00:57:40.304Z,7.58
2023-03-17T01:00:19.229Z,7.34
2023-03-17T01:02:54.280Z,7.24
2023-03-17T01:05:26.233Z,7.45
2023-03-17T01:07:58.021Z,7.87
2023-03-17T01:10:30.106Z,7.97
2023-03-17T01:13:02.285Z,7.85
2023-03-17T01:15:34.682Z,7.65
2023-03-17T01:18:06.536Z,7.59
2023-03-17T01:20:39.349Z,7.55
2023-03-17T01:23:12.343Z,7.30
2023-03-17T01:25:44.324Z,7.83
2023-03-17T01:28:19.134Z,7.78
2023-03-17T01:30:50.831Z,7.47
2023-03-17T01:33:22.602Z,7.89
2023-03-17T01:35:54.758Z,7.34
2023-03-17T01:38:26.608Z,7.31
2023-03-17T01:40:58.703Z,7.38
2023-03-17T01:43:31.266Z,6.72
2023-03-17T01:46:20.934Z,7.09
2023-03-17T01:49:13.705Z,7.31
2023-03-17T01:52:03.749Z,7.12
2023-03-17T01:54:54.494Z,7.44
2023-03-17T01:57:46.892Z,7.22
2023-03-17T02:00:21.780Z,6.83
2023-03-17T02:02:56.327Z,6.54
2023-03-17T02:05:30.954Z,6.95
2023-03-17T02:08:02.710Z,6.48
2023-03-17T02:10:34.717Z,6.67
2023-03-17T02:13:10.249Z,6.98
2023-03-17T02:15:48.496Z,6.63
2023-03-17T02:18:23.012Z,6.85
2023-03-17T02:21:27.672Z,7.31
2023-03-17T02:24:09.016Z,7.12
2023-03-17T02:26:43.642Z,6.73
2023-03-17T02:29:16.524Z,7.24
2023-03-17T02:31:48.195Z,7.31
2023-03-17T02:34:20.471Z,6.94
2023-03-17T02:36:52.641Z,6.72
2023-03-17T02:39:25.575Z,6.60
2023-03-17T02:41:57.592Z,6.82
2023-03-17T02:44:29.423Z,6.83
2023-03-17T02:47:02.267Z,6.99
2023-03-17T02:49:36.591Z,6.57
2023-03-17T02:52:08.486Z,6.76
2023-03-17T02:54:40.495Z,6.96
2023-03-17T02:57:12.263Z,7.18
2023-03-17T02:59:45.143Z,7.25
2023-03-17T03:02:16.924Z,7.27
2023-03-17T03:04:48.606Z,7.06
2023-03-17T03:07:20.259Z,7.14
2023-03-17T03:09:51.811Z,6.96
2023-03-17T03:12:23.453Z,7.28
2023-03-17T03:14:55.072Z,6.98
2023-03-17T03:17:26.622Z,6.89
2023-03-17T03:19:58.235Z,6.65
2023-03-17T03:22:29.892Z,7.02
2023-03-17T03:25:01.492Z,7.37
2023-03-17T03:27:33.228Z,7.10
2023-03-17T03:30:05.394Z,6.77
2023-03-17T03:32:37.025Z,6.98
2023-03-17T03:35:08.931Z,6.99
2023-03-17T03:37:40.530Z,6.91
2023-03-17T03:40:12.772Z,7.15
2023-03-17T03:42:44.557Z,7.37
2023-03-17T03:45:16.250Z,7.30
2023-03-17T03:47:47.864Z,7.40
2023-03-17T03:50:20.859Z,7.44
2023-03-17T03:52:52.465Z,7.20
2023-03-17T03:55:24.575Z,7.04
2023-03-17T03:57:56.363Z,6.90
2023-03-17T04:00:28.020Z,7.00
2023-03-17T04:03:00.655Z,7.27
2023-03-17T04:05:32.278Z,7.35
2023-03-17T04:08:04.006Z,7.00
2023-03-17T04:10:35.594Z,7.10
2023-03-17T04:13:07.203Z,6.93
2023-03-17T04:15:38.788Z,7.16
2023-03-17T04:18:10.385Z,6.93
2023-03-17T04:20:41.974Z,6.83
2023-03-17T04:23:13.619Z,6.56
2023-03-17T04:25:45.205Z,7.10
2023-03-17T04:28:16.978Z,6.95
2023-03-17T04:30:48.532Z,7.07
2023-03-17T04:33:20.125Z,6.75
2023-03-17T04:35:51.769Z,6.71
2023-03-17T04:38:23.417Z,6.94
2023-03-17T04:40:54.970Z,7.06
2023-03-17T04:43:26.569Z,6.99
2023-03-17T04:45:58.206Z,7.08
2023-03-17T04:48:30.079Z,7.00
2023-03-17T04:51:01.871Z,6.74
2023-03-17T04:53:33.636Z,6.48
2023-03-17T04:56:05.573Z,6.21
2023-03-17T04:58:38.439Z,6.63
2023-03-17T05:01:10.668Z,6.84
2023-03-17T05:03:42.858Z,7.02
2023-03-17T05:06:14.665Z,7.26
2023-03-17T05:08:46.502Z,7.21
2023-03-17T05:11:18.404Z,6.95
2023-03-17T05:13:50.195Z,7.04
2023-03-17T05:16:21.811Z,6.97
2023-03-17T05:18:53.957Z,7.17
2023-03-17T05:21:25.715Z,7.12
2023-03-17T05:23:57.643Z,7.00
2023-03-17T05:26:29.318Z,6.97
2023-03-17T05:29:01.008Z,7.20
2023-03-17T05:31:33.065Z,7.21
2023-03-17T05:34:04.891Z,7.23
2023-03-17T05:36:36.574Z,7.24
2023-03-17T05:39:08.328Z,6.93
2023-03-17T05:41:39.995Z,6.92
2023-03-17T05:44:11.839Z,7.20
2023-03-17T05:46:43.500Z,7.17
2023-03-17T05:49:15.160Z,7.09
2023-03-17T05:51:47.282Z,7.06
2023-03-17T05:54:18.934Z,7.10
2023-03-17T05:56:51.111Z,7.11
2023-03-17T05:59:22.968Z,7.18
2023-03-17T06:01:55.209Z,7.37
2023-03-17T06:04:26.912Z,7.33
2023-03-17T06:06:58.477Z,7.80
2023-03-17T06:09:30.281Z,8.27
2023-03-17T06:12:02.003Z,8.58
2023-03-17T06:14:33.926Z,9.07
2023-03-17T06:17:05.504Z,9.47
2023-03-17T06:19:37.195Z,9.39
2023-03-17T06:22:08.846Z,9.30
2023-03-17T06:24:40.546Z,9.18
2023-03-17T06:27:12.336Z,9.04
2023-03-17T06:29:43.975Z,9.25
2023-03-17T06:32:20.699Z,9.50
2023-03-17T06:34:52.563Z,9.81
2023-03-17T06:37:24.262Z,9.64
2023-03-17T06:39:55.950Z,10.74
2023-03-17T06:42:27.627Z,11.00
2023-03-17T06:44:59.175Z,12.36
2023-03-17T06:47:30.941Z,12.36
2023-03-17T06:50:04.110Z,13.23
2023-03-17T06:52:36.393Z,14.59
2023-03-17T06:55:08.759Z,14.28
2023-03-17T06:57:40.368Z,15.42
2023-03-17T07:00:12.818Z,16.92
2023-03-17T07:02:44.624Z,18.03
2023-03-17T07:05:16.349Z,18.25
2023-03-17T07:07:48.055Z,18.67
2023-03-17T07:10:19.696Z,17.84
2023-03-17T07:12:51.880Z,19.26
2023-03-17T07:15:23.490Z,20.47
2023-03-17T07:17:55.108Z,21.51
2023-03-17T07:20:26.829Z,20.74
2023-03-17T07:23:01.330Z,19.90
2023-03-17T07:25:33.723Z,19.48
2023-03-17T07:28:05.626Z,20.41
2023-03-17T07:30:37.288Z,19.93
2023-03-17T07:33:09.078Z,19.43
2023-03-17T07:35:40.688Z,18.44
2023-03-17T07:38:12.481Z,18.00
2023-03-17T07:40:48.073Z,17.90
2023-03-17T07:43:19.697Z,17.44
2023-03-17T07:45:51.457Z,17.43
2023-03-17T07:48:23.098Z,18.22
2023-03-17T07:50:54.911Z,18.20
2023-03-17T07:53:27.790Z,18.73
2023-03-17T07:55:59.679Z,17.25
2023-03-17T07:58:31.333Z,15.61
2023-03-17T08:01:07.518Z,16.07
2023-03-17T08:03:41.474Z,16.08
2023-03-17T08:06:13.511Z,16.54
2023-03-17T08:08:45.829Z,16.59
2023-03-17T08:11:20.848Z,17.09
2023-03-17T08:13:53.774Z,17.10
2023-03-17T08:16:25.847Z,16.67
2023-03-17T08:18:58.657Z,16.25
2023-03-17T08:21:30.848Z,15.95
2023-03-17T08:24:02.827Z,15.20
2023-03-17T08:26:34.898Z,15.49
2023-03-17T08:29:07.791Z,15.09
2023-03-17T08:31:40.037Z,15.22
2023-03-17T08:34:12.228Z,15.27
2023-03-17T08:36:44.504Z,14.72
2023-03-17T08:39:19.646Z,13.96
2023-03-17T08:41:54.365Z,12.95
2023-03-17T08:44:26.489Z,12.32
2023-03-17T08:46:58.738Z,13.87
2023-03-17T08:49:31.168Z,14.26
2023-03-17T08:52:04.037Z,14.67
2023-03-17T08:54:36.994Z,13.47
2023-03-17T08:57:09.751Z,14.30
2023-03-17T08:59:43.155Z,14.19
2023-03-17T09:02:16.768Z,15.18
2023-03-17T09:04:49.884Z,14.67
2023-03-17T09:07:23.017Z,15.05
2023-03-17T09:09:54.728Z,14.87
2023-03-17T09:12:26.441Z,15.21
2023-03-17T09:14:58.271Z,15.45
2023-03-17T09:17:29.955Z,15.14
2023-03-17T09:20:01.690Z,15.03
2023-03-17T09:22:33.286Z,14.72
2023-03-17T09:25:05.240Z,15.07
2023-03-17T09:27:36.847Z,14.60
2023-03-17T09:30:09.271Z,14.24
2023-03-17T09:32:40.929Z,14.56
2023-03-17T09:35:12.559Z,14.76
2023-03-17T09:37:44.115Z,14.96
2023-03-17T09:40:19.635Z,14.56
2023-03-17T09:43:23.089Z,14.81
2023-03-17T09:45:56.361Z,14.43
2023-03-17T09:48:39.988Z,14.80
2023-03-17T09:51:16.907Z,14.79
2023-03-17T09:53:54.461Z,14.55
2023-03-17T09:56:36.511Z,15.41
2023-03-17T09:59:27.993Z,15.28
2023-03-17T10:02:00.092Z,15.08
2023-03-17T10:04:31.819Z,14.77
2023-03-17T10:07:06.323Z,14.58
2023-03-17T10:09:56.055Z,14.97
2023-03-17T10:12:41.886Z,15.80
2023-03-17T10:15:39.776Z,14.58
2023-03-17T10:18:14.533Z,14.44
2023-03-17T10:21:07.714Z,13.77
2023-03-17T10:23:39.343Z,13.89
2023-03-17T10:26:33.628Z,14.25
2023-03-17T10:29:11.919Z,15.38
2023-03-17T10:31:44.126Z,14.74
2023-03-17T10:34:19.474Z,14.56
2023-03-17T10:36:55.697Z,14.13
2023-03-17T10:39:27.955Z,14.71
2023-03-17T10:42:21.142Z,15.32
2023-03-17T10:45:11.983Z,15.71
2023-03-17T10:47:48.266Z,15.36
2023-03-17T10:50:28.022Z,14.82
2023-03-17T10:52:59.508Z,15.70
2023-03-17T10:55:42.069Z,15.25
2023-03-17T10:58:24.954Z,15.07
2023-03-17T11:01:02.266Z,15.44
2023-03-17T11:03:39.662Z,14.62
2023-03-17T11:06:14.410Z,15.25
2023-03-17T11:08:55.879Z,16.07
2023-03-17T11:11:33.565Z,16.19
2023-03-17T11:14:11.307Z,16.00
2023-03-17T11:16:53.685Z,15.22
2023-03-17T11:19:57.941Z,15.10
2023-03-17T11:22:40.453Z,14.97
2023-03-17T11:25:16.861Z,14.08
2023-03-17T11:28:10.165Z,14.62
2023-03-17T11:31:05.985Z,14.57
2023-03-17T11:34:09.441Z,14.54
2023-03-17T11:37:23.389Z,15.51
2023-03-17T11:40:19.717Z,15.05
2023-03-17T11:42:51.292Z,14.46
2023-03-17T11:45:25.654Z,14.36
2023-03-17T11:48:24.268Z,13.59
2023-03-17T11:51:36.012Z,13.88
2023-03-17T11:54:10.831Z,13.18
2023-03-17T11:56:53.957Z,13.38
2023-03-17T11:59:46.760Z,12.58
2023-03-17T12:02:45.302Z,12.12
2023-03-17T12:05:23.973Z,12.15
2023-03-17T12:08:01.721Z,11.94
2023-03-17T12:10:43.415Z,12.03
2023-03-17T12:13:33.948Z,12.90
2023-03-17T12:16:16.181Z,12.98
2023-03-17T12:19:06.159Z,13.52
2023-03-17T12:21:57.719Z,13.21
2023-03-17T12:24:41.527Z,13.32
2023-03-17T12:27:28.543Z,13.93
2023-03-17T12:30:27.281Z,13.51
2023-03-17T12:33:10.307Z,14.01
2023-03-17T12:35:41.969Z,13.89
2023-03-17T12:38:25.430Z,13.74
2023-03-17T12:41:28.561Z,13.36
2023-03-17T12:44:23.501Z,13.08
2023-03-17T12:47:03.858Z,13.42
2023-03-17T12:49:44.223Z,13.38
2023-03-17T12:52:30.670Z,13.60
2023-03-17T12:55:09.157Z,14.14
2023-03-17T12:57:47.315Z,14.62
2023-03-17T13:00:49.824Z,14.71
2023-03-17T13:03:29.247Z,14.73
2023-03-17T13:06:04.316Z,14.97
2023-03-17T13:08:42.850Z,14.72
2023-03-17T13:11:26.749Z,15.35
2023-03-17T13:14:24.445Z,14.83
2023-03-17T13:17:27.738Z,14.81
2023-03-17T13:20:08.076Z,14.87
2023-03-17T13:23:11.470Z,15.23
2023-03-17T13:25:42.973Z,15.45
2023-03-17T13:28:14.500Z,14.71
2023-03-17T13:31:31.576Z,14.82
2023-03-17T13:34:11.183Z,15.63
2023-03-17T13:36:57.751Z,15.78
2023-03-17T13:39:38.105Z,16.11
2023-03-17T13:42:20.204Z,16.41
2023-03-17T13:45:19.557Z,16.67
2023-03-17T13:47:51.557Z,16.53
2023-03-17T13:50:42.484Z,16.48
2023-03-17T13:53:15.228Z,15.93
2023-03-17T13:56:26.744Z,15.75
2023-03-17T13:59:13.051Z,15.40
2023-03-17T14:02:11.127Z,15.91
2023-03-17T14:04:52.715Z,15.10
2023-03-17T14:07:31.208Z,14.45
2023-03-17T14:10:04.208Z,14.82
2023-03-17T14:12:51.293Z,14.56
2023-03-17T14:15:45.450Z,14.18
2023-03-17T14:18:19.838Z,13.95
2023-03-17T14:20:57.869Z,14.11
2023-03-17T14:23:29.455Z,14.17
2023-03-17T14:26:03.638Z,14.87
2023-03-17T14:28:36.488Z,14.92
2023-03-17T14:31:22.753Z,15.21
2023-03-17T14:33:56.929Z,15.07
2023-03-17T14:36:33.164Z,14.88
2023-03-17T14:39:04.816Z,14.91
2023-03-17T14:41:36.424Z,14.56
2023-03-17T14:44:09.638Z,14.13
2023-03-17T14:46:41.250Z,14.23
2023-03-17T14:49:21.032Z,15.77
2023-03-17T14:51:52.994Z,16.02
2023-03-17T14:54:35.059Z,15.62
2023-03-17T14:57:14.177Z,15.92
2023-03-17T14:59:57.962Z,16.62
2023-03-17T15:02:36.616Z,16.82
2023-03-17T15:05:26.755Z,16.95
2023-03-17T15:07:58.439Z,17.14
2023-03-17T15:10:43.344Z,16.15
2023-03-17T15:13:15.042Z,17.43
2023-03-17T15:15:46.755Z,17.66
2023-03-17T15:18:19.513Z,16.62
2023-03-17T15:20:51.204Z,16.78
2023-03-17T15:23:28.299Z,18.06
2023-03-17T15:26:03.362Z,19.53
2023-03-17T15:28:35.055Z,19.58
2023-03-17T15:31:13.930Z,19.82
2023-03-17T15:33:45.738Z,21.05
2023-03-17T15:36:33.546Z,19.87
2023-03-17T15:39:05.305Z,17.48
2023-03-17T15:41:36.895Z,17.16
2023-03-17T15:44:08.453Z,17.99
2023-03-17T15:46:40.318Z,19.24
2023-03-17T15:49:12.449Z,20.75
2023-03-17T15:51:44.044Z,21.66
2023-03-17T15:54:15.642Z,19.14
2023-03-17T15:56:47.237Z,18.02
2023-03-17T15:59:18.828Z,17.85
2023-03-17T16:01:50.550Z,17.34
2023-03-17T16:04:22.321Z,16.82
2023-03-17T16:06:53.949Z,16.32
2023-03-17T16:09:25.611Z,15.85
2023-03-17T16:11:58.030Z,16.40
2023-03-17T16:14:29.574Z,17.02
2023-03-17T16:17:01.525Z,16.65
2023-03-17T16:19:33.664Z,16.96
2023-03-17T16:22:05.988Z,16.52
2023-03-17T16:24:37.652Z,16.53
2023-03-17T16:27:14.740Z,16.36
2023-03-17T16:29:46.339Z,16.60
2023-03-17T16:32:17.970Z,16.81
2023-03-17T16:34:49.560Z,16.58
2023-03-17T16:37:21.177Z,17.11
2023-03-17T16:39:52.812Z,16.87
2023-03-17T16:42:24.626Z,16.64
2023-03-17T16:44:56.549Z,16.78
2023-03-17T16:47:28.094Z,16.72
2023-03-17T16:49:59.637Z,16.99
2023-03-17T16:52:31.187Z,17.01
2023-03-17T16:55:02.777Z,17.02
2023-03-17T16:57:34.383Z,16.86
2023-03-17T17:00:08.514Z,17.23
2023-03-17T17:02:40.114Z,17.05
2023-03-17T17:05:17.042Z,16.98
2023-03-17T17:07:49.758Z,16.70
2023-03-17T17:10:22.042Z,16.59
2023-03-17T17:12:53.830Z,16.40
2023-03-17T17:15:25.782Z,16.62
2023-03-17T17:18:02.490Z,16.35
2023-03-17T17:20:37.150Z,16.65
2023-03-17T17:23:17.349Z,16.42
2023-03-17T17:25:49.409Z,16.17
2023-03-17T17:28:23.994Z,16.25
2023-03-17T17:30:55.646Z,15.98
2023-03-17T17:33:27.287Z,15.06
2023-03-17T17:35:59.107Z,15.30
2023-03-17T17:38:30.951Z,15.49
2023-03-17T17:41:02.589Z,14.89
2023-03-17T17:43:34.425Z,15.17
2023-03-17T17:46:17.096Z,14.87
2023-03-17T17:48:49.485Z,14.72
2023-03-17T17:51:21.082Z,14.22
2023-03-17T17:53:52.645Z,13.98
2023-03-17T17:56:24.827Z,14.18
2023-03-17T17:58:56.396Z,14.61
2023-03-17T18:01:28.173Z,14.29
2023-03-17T18:03:59.765Z,14.63
2023-03-17T18:06:31.316Z,14.72
2023-03-17T18:09:03.400Z,14.36
2023-03-17T18:11:35.403Z,14.89
2023-03-17T18:14:08.775Z,14.14
2023-03-17T18:16:41.256Z,14.42
2023-03-17T18:19:13.848Z,14.36
2023-03-17T18:21:45.548Z,14.45
2023-03-17T18:24:17.221Z,14.22
2023-03-17T18:26:48.823Z,14.44
2023-03-17T18:29:20.408Z,14.11
2023-03-17T18:31:54.858Z,14.00
2023-03-17T18:34:34.956Z,14.51
2023-03-17T18:37:06.786Z,14.47
2023-03-17T18:39:39.689Z,14.62
2023-03-17T18:42:11.920Z,14.17
2023-03-17T18:44:43.892Z,14.71
2023-03-17T18:47:15.543Z,14.69
2023-03-17T18:49:56.571Z,14.82
2023-03-17T18:52:33.313Z,14.36
2023-03-17T18:55:05.918Z,14.35
2023-03-17T18:57:37.999Z,14.10
2023-03-17T19:00:13.094Z,13.74
2023-03-17T19:02:45.550Z,14.16
2023-03-17T19:05:17.791Z,14.78
2023-03-17T19:07:49.419Z,14.55
2023-03-17T19:10:21.044Z,14.35
2023-03-17T19:12:52.625Z,14.22
2023-03-17T19:15:24.697Z,14.34
2023-03-17T19:17:56.341Z,14.18
2023-03-17T19:20:28.040Z,14.23
2023-03-17T19:22:59.798Z,14.64
2023-03-17T19:25:31.494Z,13.97
2023-03-17T19:28:03.142Z,13.64
2023-03-17T19:30:35.215Z,13.48
2023-03-17T19:33:07.068Z,13.84
2023-03-17T19:35:39.219Z,14.18
2023-03-17T19:38:11.516Z,14.66
2023-03-17T19:40:43.059Z,14.36
2023-03-17T19:43:25.697Z,14.04
2023-03-17T19:46:04.510Z,14.06
2023-03-17T19:48:36.184Z,14.44
2023-03-17T19:51:07.902Z,14.50
2023-03-17T19:53:39.468Z,14.56
2023-03-17T19:56:11.449Z,14.61
2023-03-17T19:58:43.128Z,14.46
2023-03-17T20:01:15.183Z,14.70
2023-03-17T20:03:46.794Z,14.70
2023-03-17T20:06:18.422Z,14.59
2023-03-17T20:08:51.116Z,14.44
2023-03-17T20:11:22.725Z,14.92
2023-03-17T20:13:54.341Z,14.78
2023-03-17T20:16:26.064Z,14.67
2023-03-17T20:18:57.773Z,14.39
2023-03-17T20:21:29.688Z,14.56
2023-03-17T20:24:01.234Z,14.71
2023-03-17T20:26:33.058Z,14.55
2023-03-17T20:29:04.685Z,14.58
2023-03-17T20:31:37.469Z,14.63
2023-03-17T20:34:10.169Z,14.25
2023-03-17T20:36:41.768Z,14.46
2023-03-17T20:39:13.349Z,14.60
2023-03-17T20:41:48.374Z,14.68
2023-03-17T20:44:20.371Z,14.69
2023-03-17T20:46:52.093Z,14.60
2023-03-17T20:49:23.703Z,14.31
2023-03-17T20:51:55.280Z,14.23
2023-03-17T20:54:27.584Z,14.35
2023-03-17T20:56:59.238Z,13.89
2023-03-17T20:59:30.833Z,13.81
2023-03-17T21:02:02.527Z,13.68
2023-03-17T21:04:34.216Z,13.31
2023-03-17T21:07:05.819Z,13.19
2023-03-17T21:09:37.457Z,12.97
2023-03-17T21:12:17.041Z,13.10
2023-03-17T21:14:48.931Z,13.31
2023-03-17T21:17:20.539Z,13.48
2023-03-17T21:19:52.253Z,13.06
2023-03-17T21:22:24.621Z,13.04
2023-03-17T21:24:56.238Z,13.06
2023-03-17T21:27:27.849Z,13.05
2023-03-17T21:29:59.707Z,13.02
2023-03-17T21:32:31.333Z,13.52
2023-03-17T21:35:03.025Z,13.24
2023-03-17T21:37:35.229Z,12.92
2023-03-17T21:40:07.492Z,13.09
2023-03-17T21:42:39.101Z,13.21
2023-03-17T21:45:10.983Z,12.99
2023-03-17T21:47:42.639Z,13.52
2023-03-17T21:50:17.464Z,14.06
2023-03-17T21:52:49.317Z,13.55
2023-03-17T21:55:20.964Z,13.55
2023-03-17T21:57:52.591Z,13.57
2023-03-17T22:00:27.216Z,13.39
2023-03-17T22:03:02.053Z,13.83
2023-03-17T22:05:34.190Z,13.55
2023-03-17T22:08:06.547Z,13.63
2023-03-17T22:10:39.493Z,13.73
2023-03-17T22:13:11.473Z,14.15
2023-03-17T22:15:43.123Z,14.31
2023-03-17T22:18:14.739Z,13.79
2023-03-17T22:20:46.362Z,13.69
2023-03-17T22:23:17.973Z,13.52
2023-03-17T22:25:49.698Z,13.61
2023-03-17T22:28:21.319Z,13.66
2023-03-17T22:30:52.889Z,13.74
2023-03-17T22:33:24.502Z,13.59
2023-03-17T22:35:56.178Z,13.71
2023-03-17T22:38:27.857Z,13.80
2023-03-17T22:41:00.992Z,13.63
2023-03-17T22:43:32.577Z,13.59
2023-03-17T22:46:05.249Z,13.46
2023-03-17T22:48:37.254Z,13.63
2023-03-17T22:51:11.905Z,13.04
2023-03-17T22:53:44.341Z,12.97
2023-03-17T22:56:18.014Z,12.59
2023-03-17T22:58:49.732Z,12.80
2023-03-17T23:01:22.883Z,12.73
2023-03-17T23:03:55.344Z,12.48
2023-03-17T23:06:26.962Z,12.35
2023-03-17T23:08:58.574Z,12.78
2023-03-17T23:11:30.332Z,12.87
2023-03-17T23:14:01.884Z,12.85
2023-03-17T23:16:33.907Z,12.72
2023-03-17T23:19:05.696Z,12.31
2023-03-17T23:21:39.092Z,12.37
2023-03-17T23:24:10.743Z,12.51
2023-03-17T23:26:42.385Z,12.83
2023-03-17T23:29:14.149Z,13.12
2023-03-17T23:31:45.742Z,12.93
2023-03-17T23:34:17.337Z,12.76
2023-03-17T23:36:48.906Z,13.01
2023-03-17T23:39:20.929Z,12.88
2023-03-17T23:41:52.516Z,12.85
2023-03-17T23:44:24.091Z,11.88
2023-03-17T23:46:56.202Z,11.72
2023-03-17T23:49:27.819Z,11.83
2023-03-17T23:51:59.408Z,11.38
2023-03-17T23:54:31.874Z,11.34
2023-03-17T23:57:04.112Z,11.35
2023-03-17T23:59:35.759Z,11.65
